Time;durP1;ratioP1;P1;durP2;ratioP2;P2;SDS_P1;SDS_P2;PMS_P1;PMS_P2;Temp;Humidity;BMP_temperature;BMP_pressure;BME280_temperature;BME280_humidity;BME280_pressure;Samples;Min_cycle;Max_cycle;Signal;HPM_P1;HPM_P2
2021/06/20 00:00:23;;;;;;;19.60;17.60;;;21.90;72.10;;;;;;5165241;28;20501;-69
2021/06/20 00:02:56;;;;;;;20.35;18.25;;;21.90;71.70;;;;;;5182581;28;20481;-69
2021/06/20 00:05:32;;;;;;;21.17;19.00;;;21.90;72.50;;;;;;5191268;28;20056;-69
2021/06/20 00:08:08;;;;;;;20.75;18.50;;;21.90;72.40;;;;;;5181022;28;20457;-70
2021/06/20 00:10:41;;;;;;;20.33;18.58;;;21.90;72.60;;;;;;5194029;28;20598;-70
2021/06/20 00:13:13;;;;;;;20.92;19.02;;;21.90;73.40;;;;;;5199122;28;20048;-69
2021/06/20 00:15:47;;;;;;;20.65;18.75;;;21.90;72.30;;;;;;5199884;28;20049;-69
2021/06/20 00:18:19;;;;;;;20.02;18.13;;;21.90;71.80;;;;;;5163114;28;20049;-69
2021/06/20 00:20:51;;;;;;;22.55;18.50;;;21.80;72.00;;;;;;5181204;28;20053;-69
2021/06/20 00:23:23;;;;;;;20.63;18.52;;;21.80;71.60;;;;;;5199707;28;20132;-69
2021/06/20 00:25:55;;;;;;;19.92;17.92;;;21.90;71.70;;;;;;5199921;28;20781;-69
2021/06/20 00:28:27;;;;;;;21.20;18.73;;;21.80;71.60;;;;;;5199705;28;20104;-69
2021/06/20 00:30:59;;;;;;;20.45;18.38;;;21.70;71.90;;;;;;5199446;28;20131;-70
2021/06/20 00:33:31;;;;;;;20.25;18.40;;;21.60;72.90;;;;;;5181229;28;20139;-70
2021/06/20 00:36:03;;;;;;;20.40;18.52;;;21.50;73.20;;;;;;5198876;28;20041;-71
2021/06/20 00:38:35;;;;;;;20.10;18.30;;;21.60;73.30;;;;;;5199725;28;20621;-70
2021/06/20 00:41:07;;;;;;;21.35;19.45;;;21.60;73.00;;;;;;5181764;28;20041;-70
2021/06/20 00:43:39;;;;;;;21.17;19.25;;;21.60;74.10;;;;;;5195130;28;20127;-71
2021/06/20 00:46:11;;;;;;;20.85;18.75;;;21.60;73.00;;;;;;5198837;28;20462;-71
2021/06/20 00:48:43;;;;;;;22.73;18.90;;;21.60;72.90;;;;;;5179678;28;20048;-69
2021/06/20 00:51:15;;;;;;;20.77;18.95;;;21.60;72.70;;;;;;5184901;28;20073;-70
2021/06/20 00:53:48;;;;;;;21.08;18.90;;;21.70;72.50;;;;;;5178191;28;20128;-70
2021/06/20 00:56:20;;;;;;;20.50;18.60;;;21.60;71.80;;;;;;5196386;28;20748;-71
2021/06/20 00:59:02;;;;;;;21.20;19.17;;;21.60;72.40;;;;;;5198385;28;20067;-70
2021/06/20 01:01:35;;;;;;;20.55;18.38;;;21.50;73.50;;;;;;5198833;28;20460;-70
2021/06/20 01:04:07;;;;;;;20.90;18.77;;;21.40;73.00;;;;;;5198496;28;20034;-70
2021/06/20 01:06:39;;;;;;;22.08;18.90;;;21.30;73.10;;;;;;5197909;28;20137;-69
2021/06/20 01:09:11;;;;;;;21.95;19.13;;;21.30;72.80;;;;;;5181427;28;20064;-69
2021/06/20 01:11:43;;;;;;;20.58;18.42;;;21.40;72.90;;;;;;5178622;28;20132;-68
2021/06/20 01:14:15;;;;;;;20.67;18.65;;;21.30;73.10;;;;;;5195152;28;20069;-68
2021/06/20 01:16:53;;;;;;;20.75;18.75;;;21.30;73.20;;;;;;5197082;28;20076;-70
2021/06/20 01:19:25;;;;;;;20.40;18.60;;;21.20;73.70;;;;;;5198049;28;20037;-69
2021/06/20 01:21:57;;;;;;;20.17;18.08;;;21.20;73.50;;;;;;5177774;28;20819;-69
2021/06/20 01:24:29;;;;;;;21.98;19.35;;;21.20;73.90;;;;;;5198902;28;20061;-69
2021/06/20 01:27:01;;;;;;;21.15;18.80;;;21.10;73.70;;;;;;5197049;28;20529;-69
2021/06/20 01:29:34;;;;;;;20.63;18.73;;;21.10;73.70;;;;;;5198882;28;20095;-69
2021/06/20 01:32:06;;;;;;;22.05;18.48;;;21.10;73.60;;;;;;5180048;28;20041;-69
2021/06/20 01:34:38;;;;;;;20.55;18.35;;;21.10;74.00;;;;;;5198281;28;20103;-68
2021/06/20 01:37:11;;;;;;;21.52;19.30;;;21.10;73.50;;;;;;5179740;28;20141;-69
2021/06/20 01:39:44;;;;;;;20.23;18.30;;;21.00;73.80;;;;;;5197633;28;20064;-69
2021/06/20 01:42:17;;;;;;;20.30;18.45;;;21.00;73.80;;;;;;5178627;28;20084;-70
2021/06/20 01:44:55;;;;;;;20.45;18.35;;;21.00;73.70;;;;;;5195072;28;20091;-69
2021/06/20 01:47:28;;;;;;;20.83;18.45;;;20.80;74.60;;;;;;5197245;28;20037;-69
2021/06/20 01:50:03;;;;;;;19.65;17.75;;;20.80;74.50;;;;;;5180137;28;20049;-69
2021/06/20 01:52:36;;;;;;;21.10;18.00;;;20.80;74.60;;;;;;5198402;28;20045;-69
2021/06/20 01:55:10;;;;;;;20.33;18.27;;;20.90;74.50;;;;;;5197650;28;20125;-69
2021/06/20 01:57:43;;;;;;;20.88;18.90;;;20.90;74.80;;;;;;5163726;28;20053;-69
2021/06/20 02:00:16;;;;;;;20.45;18.17;;;20.90;74.40;;;;;;5197620;28;20071;-68
2021/06/20 02:02:48;;;;;;;20.08;18.27;;;20.90;74.10;;;;;;5198343;28;20049;-70
2021/06/20 02:05:24;;;;;;;20.30;18.35;;;20.90;74.60;;;;;;5197106;28;20095;-69
2021/06/20 02:07:56;;;;;;;20.33;18.33;;;20.90;74.10;;;;;;5197505;28;20517;-68
2021/06/20 02:10:28;;;;;;;20.23;18.20;;;20.90;73.80;;;;;;5196901;28;20041;-69
2021/06/20 02:13:00;;;;;;;25.23;18.67;;;20.90;74.00;;;;;;5197609;28;20049;-69
2021/06/20 02:15:33;;;;;;;23.05;17.35;;;20.80;73.40;;;;;;5197651;28;20121;-70
2021/06/20 02:18:06;;;;;;;21.10;18.45;;;20.70;73.20;;;;;;5168171;28;20498;-68
2021/06/20 02:20:39;;;;;;;20.48;18.40;;;20.80;74.20;;;;;;5196247;28;20458;-71
2021/06/20 02:23:11;;;;;;;19.40;17.42;;;20.80;74.40;;;;;;5197401;28;20041;-69
2021/06/20 02:25:44;;;;;;;23.13;18.00;;;20.80;73.90;;;;;;5196733;28;20050;-69
2021/06/20 02:28:16;;;;;;;25.17;18.15;;;20.80;74.30;;;;;;5161315;28;20560;-69
2021/06/20 02:30:48;;;;;;;20.98;17.73;;;20.70;74.50;;;;;;5196748;28;20428;-69
2021/06/20 02:33:20;;;;;;;20.13;17.98;;;20.70;74.20;;;;;;5180110;28;20048;-68
2021/06/20 02:35:52;;;;;;;23.45;18.00;;;20.70;73.90;;;;;;5196336;28;20116;-69
2021/06/20 02:38:24;;;;;;;27.30;18.23;;;20.70;73.50;;;;;;5197359;28;20151;-69
2021/06/20 02:40:55;;;;;;;24.00;18.52;;;20.70;74.70;;;;;;5195805;28;20174;-69
2021/06/20 02:43:27;;;;;;;20.65;18.63;;;20.50;76.10;;;;;;5197106;28;20069;-70
2021/06/20 02:45:59;;;;;;;21.23;18.45;;;20.50;75.00;;;;;;5175204;28;20107;-69
2021/06/20 02:48:31;;;;;;;21.15;17.65;;;20.50;72.60;;;;;;5192162;28;20045;-69
2021/06/20 02:51:03;;;;;;;28.65;18.83;;;20.50;71.10;;;;;;5196832;28;20070;-69
2021/06/20 02:53:35;;;;;;;24.30;17.95;;;20.60;72.60;;;;;;5197460;28;20096;-69
2021/06/20 02:56:07;;;;;;;24.77;17.75;;;20.50;72.60;;;;;;5194317;28;20146;-69
2021/06/20 02:58:39;;;;;;;22.58;17.10;;;20.50;72.90;;;;;;5179590;28;20088;-69
2021/06/20 03:01:11;;;;;;;24.80;18.17;;;20.50;72.90;;;;;;5195393;28;20046;-70
2021/06/20 03:03:44;;;;;;;23.70;17.73;;;20.40;73.10;;;;;;5197229;28;20037;-68
2021/06/20 03:06:16;;;;;;;21.60;17.38;;;20.40;73.00;;;;;;5195926;28;20091;-69
2021/06/20 03:08:48;;;;;;;26.85;18.38;;;20.30;73.20;;;;;;5197204;28;20068;-68
2021/06/20 03:11:20;;;;;;;22.15;18.00;;;20.30;72.90;;;;;;5196332;28;20115;-69
2021/06/20 03:13:52;;;;;;;25.27;18.13;;;20.30;73.20;;;;;;5197241;28;20120;-68
2021/06/20 03:16:24;;;;;;;28.00;18.30;;;20.20;73.20;;;;;;5181029;28;20065;-69
2021/06/20 03:18:56;;;;;;;27.42;18.70;;;20.20;73.10;;;;;;5197496;28;20068;-68
2021/06/20 03:21:28;;;;;;;22.98;18.08;;;20.20;72.90;;;;;;5196964;28;20038;-69
2021/06/20 03:24:00;;;;;;;24.42;17.42;;;20.30;73.20;;;;;;5201044;28;20593;-68
2021/06/20 03:26:33;;;;;;;20.88;18.65;;;20.40;73.30;;;;;;5198853;28;20038;-68
2021/06/20 03:29:05;;;;;;;20.77;18.63;;;20.40;73.50;;;;;;5200585;28;20083;-68
2021/06/20 03:31:37;;;;;;;31.77;18.23;;;20.50;72.80;;;;;;5200510;28;20145;-68
2021/06/20 03:34:09;;;;;;;22.27;18.27;;;20.50;72.70;;;;;;5184295;28;20800;-68
2021/06/20 03:36:41;;;;;;;22.63;17.48;;;20.40;72.70;;;;;;5199651;28;20142;-68
2021/06/20 03:39:13;;;;;;;24.90;18.50;;;20.50;72.70;;;;;;5200374;28;20038;-69
2021/06/20 03:41:45;;;;;;;21.20;19.05;;;20.50;72.80;;;;;;5199809;28;20038;-70
2021/06/20 03:44:17;;;;;;;38.50;18.55;;;20.60;72.90;;;;;;5200879;28;20403;-69
2021/06/20 03:46:49;;;;;;;21.30;17.52;;;20.50;72.50;;;;;;5179434;28;20065;-70
2021/06/20 03:49:21;;;;;;;27.17;18.23;;;20.50;72.70;;;;;;5200348;28;20049;-68
2021/06/20 03:51:54;;;;;;;27.80;18.85;;;20.60;73.20;;;;;;5196437;28;20053;-68
2021/06/20 03:54:26;;;;;;;24.80;18.55;;;20.70;73.20;;;;;;5200742;28;20053;-69
2021/06/20 03:56:58;;;;;;;21.85;18.75;;;20.70;73.70;;;;;;5198412;28;20132;-68
2021/06/20 03:59:30;;;;;;;28.10;20.08;;;20.80;74.60;;;;;;5199877;28;20037;-69
2021/06/20 04:02:02;;;;;;;23.30;19.55;;;20.90;74.60;;;;;;5199853;28;20099;-69
2021/06/20 04:04:35;;;;;;;25.08;19.08;;;21.00;74.80;;;;;;5181968;28;20128;-69
2021/06/20 04:07:08;;;;;;;30.30;19.67;;;21.10;75.60;;;;;;5199672;28;20111;-68
2021/06/20 04:09:44;;;;;;;30.23;20.05;;;21.20;75.60;;;;;;5172470;28;20128;-69
2021/06/20 04:12:16;;;;;;;22.80;18.73;;;21.20;73.40;;;;;;5199487;28;20053;-69
2021/06/20 04:14:48;;;;;;;24.13;19.00;;;21.20;72.00;;;;;;5200889;28;20069;-69
2021/06/20 04:17:22;;;;;;;23.80;18.73;;;21.20;70.70;;;;;;5198434;28;20065;-68
2021/06/20 04:19:53;;;;;;;24.33;19.10;;;21.10;70.30;;;;;;5150071;28;20044;-68
2021/06/20 04:22:25;;;;;;;22.27;18.42;;;21.10;72.00;;;;;;5199664;28;20076;-68
2021/06/20 04:24:57;;;;;;;26.88;19.27;;;21.10;71.60;;;;;;5178912;28;20050;-68
2021/06/20 04:27:29;;;;;;;22.35;18.05;;;21.20;72.40;;;;;;5180906;28;20124;-69
2021/06/20 04:30:02;;;;;;;23.00;18.33;;;21.20;72.20;;;;;;5197382;28;20111;-69
2021/06/20 04:32:34;;;;;;;20.13;18.00;;;21.30;72.10;;;;;;5181467;28;20045;-69
2021/06/20 04:35:06;;;;;;;20.95;17.98;;;21.30;72.30;;;;;;5198966;28;20074;-68
2021/06/20 04:37:39;;;;;;;21.92;19.10;;;21.40;73.30;;;;;;5179873;28;20074;-68
2021/06/20 04:40:23;;;;;;;27.92;18.58;;;21.40;73.20;;;;;;5180062;28;20423;-69
2021/06/20 04:43:04;;;;;;;23.27;19.77;;;21.50;74.40;;;;;;5198808;28;20087;-68
2021/06/20 04:45:36;;;;;;;28.98;19.15;;;21.50;74.00;;;;;;5198330;28;20061;-68
2021/06/20 04:48:08;;;;;;;23.85;19.63;;;21.70;74.80;;;;;;5171748;28;20100;-69
2021/06/20 04:50:40;;;;;;;29.88;19.85;;;21.70;74.60;;;;;;5198907;28;20053;-68
2021/06/20 04:53:15;;;;;;;27.52;19.70;;;21.70;74.40;;;;;;5199105;28;20038;-68
2021/06/20 04:55:47;;;;;;;22.55;18.85;;;21.80;75.50;;;;;;5195195;28;20123;-68
2021/06/20 04:58:19;;;;;;;26.50;20.08;;;21.80;75.00;;;;;;5181583;28;20033;-68
2021/06/20 05:00:51;;;;;;;23.27;19.70;;;21.90;76.10;;;;;;5198686;28;20053;-68
2021/06/20 05:03:23;;;;;;;25.77;20.15;;;22.00;75.50;;;;;;5199626;28;20041;-68
2021/06/20 05:05:54;;;;;;;25.48;19.95;;;22.10;75.50;;;;;;5164846;28;20552;-68
2021/06/20 05:08:26;;;;;;;26.38;19.10;;;22.10;74.40;;;;;;5198611;28;20107;-68
2021/06/20 05:10:58;;;;;;;28.90;19.73;;;22.10;75.40;;;;;;5199448;28;20069;-68
2021/06/20 05:13:30;;;;;;;26.33;19.85;;;22.10;75.80;;;;;;5199023;28;20049;-68
2021/06/20 05:16:03;;;;;;;24.77;19.65;;;22.20;76.10;;;;;;5197974;28;20045;-69
2021/06/20 05:18:35;;;;;;;27.70;20.45;;;22.30;75.70;;;;;;5198821;28;20049;-69
2021/06/20 05:21:07;;;;;;;26.90;20.17;;;22.30;75.10;;;;;;5197547;28;21693;-68
2021/06/20 05:23:39;;;;;;;23.20;19.45;;;22.30;76.60;;;;;;5199124;28;20055;-69
2021/06/20 05:26:11;;;;;;;26.50;20.55;;;22.30;77.80;;;;;;5194480;28;20045;-68
2021/06/20 05:28:47;;;;;;;25.67;19.63;;;22.30;77.30;;;;;;5199049;28;20064;-69
2021/06/20 05:31:19;;;;;;;24.17;20.52;;;22.40;76.90;;;;;;5198792;28;20403;-69
2021/06/20 05:33:51;;;;;;;30.73;20.17;;;22.30;76.40;;;;;;5178638;28;20106;-69
2021/06/20 05:36:23;;;;;;;24.60;19.75;;;22.30;78.00;;;;;;5197485;28;20510;-70
2021/06/20 05:38:55;;;;;;;28.60;20.40;;;22.30;77.90;;;;;;5198659;28;20129;-68
2021/06/20 05:41:27;;;;;;;26.95;19.88;;;22.40;77.90;;;;;;5197378;28;20053;-68
2021/06/20 05:43:59;;;;;;;27.70;20.10;;;22.50;77.40;;;;;;5198477;28;20126;-70
2021/06/20 05:46:31;;;;;;;29.23;19.77;;;22.50;76.70;;;;;;5179302;28;20041;-71
2021/06/20 05:49:03;;;;;;;26.90;19.75;;;22.50;76.50;;;;;;5198193;28;20041;-69
2021/06/20 05:51:35;;;;;;;25.33;19.30;;;22.60;76.80;;;;;;5177103;28;20411;-70
2021/06/20 05:54:07;;;;;;;25.73;19.58;;;22.70;77.10;;;;;;5196054;28;20049;-71
2021/06/20 05:56:39;;;;;;;26.65;20.40;;;22.80;77.00;;;;;;5196987;28;20615;-70
2021/06/20 05:59:11;;;;;;;25.17;21.08;;;22.80;76.80;;;;;;5194301;28;20940;-69
2021/06/20 06:01:43;;;;;;;24.92;20.90;;;22.90;76.90;;;;;;5197951;28;20049;-69
2021/06/20 06:04:15;;;;;;;30.15;21.13;;;23.10;76.20;;;;;;5197860;28;20077;-69
2021/06/20 06:06:47;;;;;;;29.30;21.27;;;23.10;74.80;;;;;;5196977;28;20045;-69
2021/06/20 06:09:19;;;;;;;25.58;20.23;;;23.20;74.40;;;;;;5196328;28;20042;-70
2021/06/20 06:11:51;;;;;;;23.63;20.33;;;23.20;73.50;;;;;;5197472;28;20482;-70
2021/06/20 06:14:23;;;;;;;26.42;21.30;;;23.10;73.30;;;;;;5164352;28;20096;-70
2021/06/20 06:16:55;;;;;;;27.23;20.75;;;23.30;73.40;;;;;;5196086;28;20051;-69
2021/06/20 06:19:27;;;;;;;24.23;19.80;;;23.40;73.30;;;;;;5197291;28;20049;-69
2021/06/20 06:22:00;;;;;;;26.65;18.83;;;23.60;73.80;;;;;;5196969;28;20038;-69
2021/06/20 06:24:32;;;;;;;26.13;18.77;;;23.60;71.30;;;;;;5164162;28;20040;-69
2021/06/20 06:27:04;;;;;;;28.42;18.63;;;23.70;69.50;;;;;;5177934;28;20093;-70
2021/06/20 06:29:36;;;;;;;27.58;18.00;;;23.70;68.90;;;;;;5175633;28;20045;-69
2021/06/20 06:32:09;;;;;;;27.40;17.95;;;23.80;70.00;;;;;;5197052;28;20116;-68
2021/06/20 06:34:41;;;;;;;32.10;19.40;;;23.90;70.20;;;;;;5196822;28;20081;-69
2021/06/20 06:37:14;;;;;;;23.00;18.27;;;23.80;69.10;;;;;;5194073;28;20064;-69
2021/06/20 06:39:46;;;;;;;30.33;18.95;;;23.80;69.60;;;;;;5194927;28;20061;-69
2021/06/20 06:42:18;;;;;;;27.02;19.17;;;23.80;68.50;;;;;;5197790;28;20765;-69
2021/06/20 06:44:50;;;;;;;28.27;19.30;;;23.70;68.00;;;;;;5198516;28;20119;-70
2021/06/20 06:47:21;;;;;;;28.67;18.00;;;23.70;68.00;;;;;;5194689;28;20099;-70
2021/06/20 06:49:54;;;;;;;24.02;18.13;;;23.80;67.70;;;;;;5179031;28;20041;-69
2021/06/20 06:52:25;;;;;;;23.98;17.90;;;23.80;67.20;;;;;;5195633;28;20136;-69
2021/06/20 06:54:57;;;;;;;29.38;18.38;;;23.90;67.40;;;;;;5195883;28;20765;-70
2021/06/20 06:57:31;;;;;;;27.00;18.08;;;23.90;67.40;;;;;;5176011;28;20055;-69
2021/06/20 07:00:06;;;;;;;25.00;17.90;;;23.90;67.30;;;;;;5173832;28;20096;-70
2021/06/20 07:02:38;;;;;;;26.13;17.45;;;23.90;66.50;;;;;;5194727;28;20141;-69
2021/06/20 07:05:10;;;;;;;23.13;18.17;;;24.00;67.00;;;;;;5195029;28;20452;-70
2021/06/20 07:07:42;;;;;;;25.80;17.42;;;24.10;67.30;;;;;;5195487;28;20045;-69
2021/06/20 07:10:14;;;;;;;24.77;17.58;;;24.00;66.20;;;;;;5195857;28;20095;-69
2021/06/20 07:12:46;;;;;;;25.50;17.45;;;24.00;65.10;;;;;;5196385;28;20041;-70
2021/06/20 07:15:18;;;;;;;28.20;17.13;;;24.00;64.40;;;;;;5195513;28;20045;-69
2021/06/20 07:17:50;;;;;;;26.60;17.25;;;24.10;64.70;;;;;;5160199;28;20136;-69
2021/06/20 07:20:23;;;;;;;29.35;17.02;;;24.10;64.20;;;;;;5194206;28;20057;-69
2021/06/20 07:22:55;;;;;;;22.58;17.23;;;24.20;64.90;;;;;;5195146;28;20044;-70
2021/06/20 07:25:27;;;;;;;25.08;16.77;;;24.30;64.30;;;;;;5193218;28;20073;-69
2021/06/20 07:27:59;;;;;;;25.10;17.25;;;24.30;64.90;;;;;;5193720;28;20148;-69
2021/06/20 07:30:32;;;;;;;23.17;17.40;;;24.40;64.10;;;;;;5194956;28;20049;-69
2021/06/20 07:33:04;;;;;;;26.17;16.80;;;24.40;63.60;;;;;;5190779;28;20049;-69
2021/06/20 07:35:36;;;;;;;24.23;17.88;;;24.60;63.90;;;;;;5193586;28;20693;-69
2021/06/20 07:38:08;;;;;;;27.65;18.13;;;24.80;63.50;;;;;;5172754;28;20041;-71
2021/06/20 07:40:40;;;;;;;27.27;18.05;;;25.10;62.60;;;;;;5193385;28;20053;-70
2021/06/20 07:43:12;;;;;;;23.92;17.30;;;25.20;62.20;;;;;;5193650;28;20050;-70
2021/06/20 07:45:44;;;;;;;30.50;17.98;;;25.40;61.60;;;;;;5194488;28;20045;-69
2021/06/20 07:48:16;;;;;;;28.45;18.98;;;25.50;62.50;;;;;;5191892;28;20041;-69
2021/06/20 07:50:48;;;;;;;28.75;18.27;;;25.50;61.20;;;;;;5190237;28;20143;-70
2021/06/20 07:53:20;;;;;;;30.55;18.55;;;25.60;61.70;;;;;;5169848;28;20056;-69
2021/06/20 07:55:52;;;;;;;30.60;18.40;;;25.70;60.00;;;;;;5193865;28;20050;-70
2021/06/20 07:58:24;;;;;;;27.27;19.25;;;25.80;59.30;;;;;;5185920;28;20104;-69
2021/06/20 08:00:56;;;;;;;31.60;19.38;;;25.70;60.40;;;;;;5192534;28;20519;-69
2021/06/20 08:03:29;;;;;;;30.13;19.00;;;25.70;60.90;;;;;;5185347;28;20124;-70
2021/06/20 08:06:01;;;;;;;25.88;18.80;;;25.80;61.00;;;;;;5171673;28;20119;-70
2021/06/20 08:08:33;;;;;;;28.25;18.55;;;25.80;62.00;;;;;;5196746;28;20050;-70
2021/06/20 08:11:05;;;;;;;33.20;18.65;;;25.90;61.10;;;;;;5178819;28;20768;-69
2021/06/20 08:13:38;;;;;;;34.58;19.35;;;25.90;59.40;;;;;;5197287;28;20102;-70
2021/06/20 08:16:10;;;;;;;32.13;18.75;;;26.00;61.20;;;;;;5195606;28;20053;-69
2021/06/20 08:18:41;;;;;;;28.20;18.52;;;26.10;60.40;;;;;;5198221;28;20083;-69
2021/06/20 08:21:14;;;;;;;27.42;18.75;;;26.20;59.90;;;;;;5197785;28;20073;-69
2021/06/20 08:23:46;;;;;;;32.92;18.50;;;26.20;58.80;;;;;;5198418;28;20072;-70
2021/06/20 08:26:18;;;;;;;29.13;18.08;;;26.20;60.00;;;;;;5197186;28;20064;-69
2021/06/20 08:28:50;;;;;;;27.40;18.40;;;26.20;59.40;;;;;;5196780;28;20124;-69
2021/06/20 08:31:22;;;;;;;27.52;18.38;;;26.20;60.70;;;;;;5198081;28;20127;-70
2021/06/20 08:33:54;;;;;;;30.77;18.88;;;26.20;59.70;;;;;;5177561;28;20041;-69
2021/06/20 08:36:27;;;;;;;25.65;18.58;;;26.20;60.90;;;;;;5197572;28;20058;-69
2021/06/20 08:38:59;;;;;;;29.30;18.50;;;26.10;60.00;;;;;;5179660;28;20108;-69
2021/06/20 08:41:34;;;;;;;23.17;18.33;;;26.20;61.20;;;;;;5161228;28;20046;-71
2021/06/20 08:44:17;;;;;;;26.98;18.20;;;26.20;60.20;;;;;;5181083;28;20045;-69
2021/06/20 08:46:49;;;;;;;31.58;19.30;;;26.20;60.50;;;;;;5178872;28;20065;-70
2021/06/20 08:49:22;;;;;;;33.33;18.60;;;26.10;59.70;;;;;;5179196;28;20041;-69
2021/06/20 08:51:57;;;;;;;30.52;18.77;;;26.10;59.00;;;;;;5197993;28;20131;-70
2021/06/20 08:54:29;;;;;;;27.15;17.90;;;26.10;58.60;;;;;;5199256;28;20147;-70
2021/06/20 08:57:02;;;;;;;35.85;18.58;;;26.10;59.30;;;;;;5197099;28;20505;-72
2021/06/20 08:59:34;;;;;;;33.25;19.42;;;26.10;58.60;;;;;;5179253;28;20439;-70
2021/06/20 09:02:06;;;;;;;33.83;18.42;;;26.20;58.40;;;;;;5198257;28;20136;-70
2021/06/20 09:04:38;;;;;;;27.75;17.63;;;26.10;58.60;;;;;;5176897;28;20042;-70
2021/06/20 09:07:10;;;;;;;30.83;17.70;;;26.20;59.70;;;;;;5161556;28;20060;-70
2021/06/20 09:09:42;;;;;;;25.40;17.95;;;26.20;60.10;;;;;;5198520;28;20044;-70
2021/06/20 09:12:15;;;;;;;28.05;18.33;;;26.30;59.30;;;;;;5177416;28;20525;-70
2021/06/20 09:14:48;;;;;;;25.08;18.25;;;26.30;58.80;;;;;;5178919;28;20139;-72
2021/06/20 09:17:28;;;;;;;33.08;19.13;;;26.20;58.90;;;;;;5169451;28;20778;-70
2021/06/20 09:20:01;;;;;;;33.77;19.43;;;26.20;59.00;;;;;;5196573;28;20724;-70
2021/06/20 09:22:33;;;;;;;33.83;19.10;;;26.20;59.90;;;;;;5178262;28;20735;-70
2021/06/20 09:25:08;;;;;;;31.73;19.70;;;26.20;59.70;;;;;;5187015;28;20466;-70
2021/06/20 09:27:40;;;;;;;27.98;18.33;;;26.10;60.70;;;;;;5195105;28;20053;-70
2021/06/20 09:30:14;;;;;;;32.50;18.90;;;26.10;60.60;;;;;;5197266;28;20064;-71
2021/06/20 09:33:01;;;;;;;29.95;19.17;;;26.10;59.90;;;;;;5170381;28;20048;-71
2021/06/20 09:35:55;;;;;;;26.48;19.08;;;26.00;60.60;;;;;;5178976;28;20606;-70
2021/06/20 09:38:33;;;;;;;28.42;17.85;;;26.00;60.90;;;;;;5195774;28;20045;-70
2021/06/20 09:41:10;;;;;;;28.63;18.42;;;25.90;60.80;;;;;;5191889;28;20190;-69
2021/06/20 09:43:56;;;;;;;29.73;18.63;;;25.90;60.50;;;;;;5197187;28;20088;-69
2021/06/20 09:46:28;;;;;;;26.90;18.30;;;26.00;61.80;;;;;;5195950;28;20133;-69
2021/06/20 09:49:00;;;;;;;27.15;18.23;;;26.00;61.30;;;;;;5197149;28;20042;-69
2021/06/20 09:51:32;;;;;;;33.03;18.48;;;26.00;61.70;;;;;;5161109;28;20038;-70
2021/06/20 09:54:05;;;;;;;29.45;18.70;;;26.10;61.30;;;;;;5196694;28;20691;-70
2021/06/20 09:56:41;;;;;;;29.52;18.67;;;26.10;61.70;;;;;;5195321;28;20494;-71
2021/06/20 09:59:13;;;;;;;32.60;19.00;;;26.10;61.20;;;;;;5196499;28;20119;-70
2021/06/20 10:01:45;;;;;;;30.38;18.52;;;26.10;61.80;;;;;;5195079;28;20078;-70
2021/06/20 10:04:18;;;;;;;32.90;18.95;;;26.10;61.20;;;;;;5196973;28;20784;-70
2021/06/20 10:06:50;;;;;;;26.73;18.48;;;26.10;61.30;;;;;;5171493;28;20061;-72
2021/06/20 10:09:22;;;;;;;34.35;18.58;;;26.10;62.30;;;;;;5178188;28;20090;-71
2021/06/20 10:11:53;;;;;;;31.63;19.10;;;26.10;62.00;;;;;;5192243;28;20072;-71
2021/06/20 10:14:27;;;;;;;25.92;19.67;;;26.10;62.00;;;;;;5197545;28;20801;-70
2021/06/20 10:17:06;;;;;;;33.65;18.98;;;26.20;62.40;;;;;;5179390;28;20049;-71
2021/06/20 10:19:42;;;;;;;30.60;19.45;;;26.20;62.80;;;;;;5171766;28;20128;-70
2021/06/20 10:22:17;;;;;;;28.73;19.67;;;26.10;62.60;;;;;;5195998;28;20092;-70
2021/06/20 10:24:55;;;;;;;30.58;18.67;;;26.20;62.80;;;;;;5173404;28;20069;-70
2021/06/20 10:27:38;;;;;;;27.92;19.38;;;26.10;64.50;;;;;;5195199;28;20060;-70
2021/06/20 10:30:17;;;;;;;31.85;18.48;;;26.20;62.50;;;;;;5195380;28;20806;-70
2021/06/20 10:32:50;;;;;;;28.15;19.52;;;26.10;62.60;;;;;;5196149;28;20045;-70
2021/06/20 10:35:24;;;;;;;29.42;19.13;;;26.20;62.60;;;;;;5177797;28;20103;-71
2021/06/20 10:37:56;;;;;;;34.53;18.90;;;26.30;62.80;;;;;;5196059;28;20506;-70
2021/06/20 10:40:40;;;;;;;29.05;18.60;;;26.30;62.80;;;;;;5179074;28;20459;-70
2021/06/20 10:43:17;;;;;;;30.15;19.35;;;26.30;61.90;;;;;;5165404;28;20037;-70
2021/06/20 10:45:49;;;;;;;31.58;19.40;;;26.40;61.80;;;;;;5178797;28;20046;-70
2021/06/20 10:48:24;;;;;;;32.90;18.95;;;26.40;61.20;;;;;;5196035;28;20414;-71
2021/06/20 10:50:58;;;;;;;29.85;19.33;;;26.50;62.00;;;;;;5176743;28;20164;-70
2021/06/20 10:53:41;;;;;;;25.55;19.05;;;26.60;61.20;;;;;;5196726;28;20112;-71
2021/06/20 10:56:24;;;;;;;29.83;19.13;;;26.40;61.80;;;;;;5177041;28;20130;-70
2021/06/20 10:58:57;;;;;;;27.45;19.15;;;26.40;62.30;;;;;;5178208;28;20081;-71
2021/06/20 11:01:38;;;;;;;28.33;18.35;;;26.50;61.80;;;;;;5194132;28;20196;-71
2021/06/20 11:04:10;;;;;;;28.55;19.27;;;26.40;61.80;;;;;;5195503;28;20128;-70
2021/06/20 11:06:53;;;;;;;25.30;19.30;;;26.50;62.30;;;;;;5195906;28;20037;-70
2021/06/20 11:09:35;;;;;;;27.13;18.65;;;26.50;62.40;;;;;;5188393;28;20076;-70
2021/06/20 11:12:14;;;;;;;27.85;18.90;;;26.50;62.80;;;;;;5196852;28;20092;-70
2021/06/20 11:14:49;;;;;;;27.98;19.40;;;26.60;61.90;;;;;;5196805;28;20107;-70
2021/06/20 11:17:32;;;;;;;31.17;18.75;;;26.60;62.80;;;;;;5196097;28;20713;-69
2021/06/20 11:20:12;;;;;;;26.77;18.70;;;26.60;62.60;;;;;;5185418;28;20104;-70
2021/06/20 11:22:44;;;;;;;23.67;18.17;;;26.60;63.60;;;;;;5196446;28;20077;-70
2021/06/20 11:25:23;;;;;;;28.92;19.00;;;26.60;63.40;;;;;;5173593;28;20033;-70
2021/06/20 11:27:55;;;;;;;25.42;18.55;;;26.60;63.50;;;;;;5194968;28;20742;-70
2021/06/20 11:30:27;;;;;;;29.98;19.40;;;26.60;63.20;;;;;;5178906;28;20049;-70
2021/06/20 11:32:59;;;;;;;26.15;19.42;;;26.60;62.80;;;;;;5187675;28;20103;-70
2021/06/20 11:35:32;;;;;;;27.13;19.33;;;26.60;63.80;;;;;;5196369;28;20053;-71
2021/06/20 11:38:04;;;;;;;25.33;19.48;;;26.60;63.60;;;;;;5177056;28;21152;-70
2021/06/20 11:40:36;;;;;;;25.83;19.27;;;26.60;63.30;;;;;;5197140;28;20392;-70
2021/06/20 11:43:08;;;;;;;24.80;19.10;;;26.70;64.00;;;;;;5199381;28;20805;-70
2021/06/20 11:45:40;;;;;;;29.27;19.98;;;26.80;62.00;;;;;;5200295;28;20037;-69
2021/06/20 11:48:11;;;;;;;23.85;19.77;;;27.00;62.90;;;;;;5197140;28;20137;-70
2021/06/20 11:50:46;;;;;;;32.45;21.00;;;27.20;62.60;;;;;;5181788;28;20041;-71
2021/06/20 11:53:21;;;;;;;27.63;19.92;;;27.50;62.30;;;;;;5199404;28;20148;-70
2021/06/20 11:55:53;;;;;;;30.50;20.35;;;27.60;61.00;;;;;;5180153;28;20049;-69
2021/06/20 11:58:25;;;;;;;27.60;20.38;;;27.50;60.90;;;;;;5177689;28;20045;-70
2021/06/20 12:00:57;;;;;;;31.52;19.83;;;27.50;61.20;;;;;;5182777;28;20564;-70
2021/06/20 12:03:29;;;;;;;26.13;20.33;;;27.50;61.10;;;;;;5197060;28;20038;-69
2021/06/20 12:06:02;;;;;;;29.92;20.45;;;27.70;61.60;;;;;;5178222;28;20124;-71
2021/06/20 12:08:35;;;;;;;30.60;20.60;;;27.90;60.50;;;;;;5197407;28;20144;-70
2021/06/20 12:11:07;;;;;;;25.92;19.58;;;28.10;60.90;;;;;;5165818;28;20045;-70
2021/06/20 12:13:40;;;;;;;27.80;20.85;;;28.20;60.10;;;;;;5180931;28;20128;-69
2021/06/20 12:16:12;;;;;;;28.42;19.88;;;28.50;60.40;;;;;;5197437;28;20549;-69
2021/06/20 12:18:44;;;;;;;31.15;20.08;;;28.50;59.50;;;;;;5199023;28;20529;-69
2021/06/20 12:21:24;;;;;;;24.67;20.10;;;28.60;59.60;;;;;;5181953;28;20037;-69
2021/06/20 12:23:58;;;;;;;29.10;20.38;;;28.60;59.90;;;;;;5199352;28;20037;-69
2021/06/20 12:26:32;;;;;;;26.48;20.92;;;28.70;59.80;;;;;;5197617;28;20113;-70
2021/06/20 12:29:05;;;;;;;27.05;20.67;;;28.80;59.40;;;;;;5199278;28;20042;-70
2021/06/20 12:31:37;;;;;;;28.38;20.35;;;29.00;58.80;;;;;;5197727;28;20423;-70
2021/06/20 12:34:09;;;;;;;30.15;20.55;;;29.00;58.80;;;;;;5197018;28;20045;-71
2021/06/20 12:36:41;;;;;;;28.27;20.58;;;29.20;58.80;;;;;;5194193;28;20057;-71
2021/06/20 12:39:13;;;;;;;31.92;20.10;;;29.20;57.50;;;;;;5197085;28;20049;-70
2021/06/20 12:41:57;;;;;;;27.80;20.70;;;29.10;58.50;;;;;;5196938;28;20069;-70
2021/06/20 12:44:49;;;;;;;25.38;20.08;;;29.20;57.10;;;;;;5199192;28;20133;-69
2021/06/20 12:47:37;;;;;;;30.17;20.33;;;29.20;56.80;;;;;;5197689;28;20545;-69
2021/06/20 12:50:09;;;;;;;27.35;20.17;;;29.20;56.10;;;;;;5197822;28;20133;-69
2021/06/20 12:52:42;;;;;;;33.15;20.30;;;29.20;55.90;;;;;;5197635;28;20041;-69
2021/06/20 12:55:19;;;;;;;31.90;20.52;;;29.30;56.50;;;;;;5172984;28;20045;-69
2021/06/20 12:58:00;;;;;;;27.98;19.92;;;29.40;57.00;;;;;;5197532;28;20079;-70